Orbital elements of BREEZE-KM DEB
| Launched | 30 March 2015 |
| Flight ended | – |
| Launch site | Plesetsk Missile and Space Complex, Russia |
| Owner | Commonwealth of Independent States (former USSR) |
| NORAD ID | 41720 |
| Date fetched |
Epoch osculation |
Inc. [°] |
Ecc. | RA asc node [hr] |
Arg Peri. [°] |
Mean anom [°] |
Mean motion [rev/day] |
Abs. mag |
| Date fetched |
Epoch osculation |
Inc. [°] |
Ecc. | RA asc node [hr] |
Arg Peri. [°] |
Mean anom [°] |
Mean motion [rev/day] |
Abs. mag |
| 2026 May 03 17:57 | 2026 Apr 30 11:26:08 | 82.4899 | 0.02292 | 12.4158 | 353.9757 | 5.8601 | 12.91001 | – |
| 2026 May 02 17:57 | 2026 Apr 30 11:26:08 | 82.4899 | 0.02292 | 12.4158 | 353.9757 | 5.8601 | 12.91001 | – |
| 2026 May 01 17:56 | 2026 Apr 30 11:26:08 | 82.4899 | 0.02292 | 12.4158 | 353.9757 | 5.8601 | 12.91001 | – |
| 2026 Apr 30 17:56 | 2026 Apr 30 11:26:08 | 82.4899 | 0.02292 | 12.4158 | 353.9757 | 5.8601 | 12.91001 | – |
| 2026 Apr 29 17:57 | 2026 Apr 21 22:50:34 | 82.4910 | 0.02296 | 12.8027 | 14.3052 | 5.8601 | 12.91001 | – |
| 2026 Apr 28 17:56 | 2026 Apr 21 22:50:34 | 82.4910 | 0.02296 | 12.8027 | 14.3052 | 5.8601 | 12.91001 | – |
| 2026 Apr 27 17:58 | 2026 Apr 21 22:50:34 | 82.4910 | 0.02296 | 12.8027 | 14.3052 | 5.8601 | 12.91001 | – |
| 2026 Apr 26 17:58 | 2026 Apr 21 22:50:34 | 82.4910 | 0.02296 | 12.8027 | 14.3052 | 5.8601 | 12.91001 | – |
| 2026 Apr 25 17:58 | 2026 Apr 21 22:50:34 | 82.4910 | 0.02296 | 12.8027 | 14.3052 | 5.8601 | 12.91001 | – |
| 2026 Apr 24 17:59 | 2026 Apr 21 22:50:34 | 82.4910 | 0.02296 | 12.8027 | 14.3052 | 5.8601 | 12.91001 | – |
| 2026 Apr 23 17:57 | 2026 Apr 16 12:38:50 | 82.4913 | 0.02299 | 13.0489 | 27.2271 | 5.8601 | 12.91001 | – |
| 2026 Apr 22 17:57 | 2026 Apr 16 12:38:50 | 82.4913 | 0.02299 | 13.0489 | 27.2271 | 5.8601 | 12.91001 | – |
| 2026 Apr 21 17:57 | 2026 Apr 16 12:38:50 | 82.4913 | 0.02299 | 13.0489 | 27.2271 | 5.8601 | 12.91001 | – |
| 2026 Apr 20 17:57 | 2026 Apr 16 12:38:50 | 82.4913 | 0.02299 | 13.0489 | 27.2271 | 5.8601 | 12.91001 | – |
| 2026 Apr 19 17:58 | 2026 Apr 16 12:38:50 | 82.4913 | 0.02299 | 13.0489 | 27.2271 | 5.8601 | 12.91001 | – |
| 2026 Apr 18 17:56 | 2026 Apr 11 13:36:40 | 82.4914 | 0.02301 | 13.2740 | 39.0279 | 5.8601 | 12.91001 | – |
| 2026 Apr 16 17:57 | 2026 Apr 11 13:36:40 | 82.4914 | 0.02301 | 13.2740 | 39.0279 | 5.8601 | 12.91001 | – |
| 2026 Apr 14 17:57 | 2026 Apr 11 13:36:40 | 82.4914 | 0.02301 | 13.2740 | 39.0279 | 5.8601 | 12.91001 | – |
| 2026 Apr 13 17:57 | 2026 Apr 11 13:36:40 | 82.4914 | 0.02301 | 13.2740 | 39.0279 | 5.8601 | 12.91001 | – |
| 2026 Apr 12 17:57 | 2026 Apr 06 12:42:52 | 82.4916 | 0.02303 | 13.5026 | 51.0103 | 5.8601 | 12.91001 | – |
| 2026 Apr 11 17:57 | 2026 Apr 06 12:42:52 | 82.4916 | 0.02303 | 13.5026 | 51.0103 | 5.8601 | 12.91001 | – |
| 2026 Apr 10 17:58 | 2026 Apr 06 12:42:52 | 82.4916 | 0.02303 | 13.5026 | 51.0103 | 5.8601 | 12.91001 | – |
| 2026 Apr 09 18:01 | 2026 Apr 06 12:42:52 | 82.4916 | 0.02303 | 13.5026 | 51.0103 | 5.8601 | 12.91001 | – |
| 2026 Apr 08 17:57 | 2026 Apr 06 12:42:52 | 82.4916 | 0.02303 | 13.5026 | 51.0103 | 5.8601 | 12.91001 | – |
| 2026 Apr 07 17:57 | 2026 Apr 02 00:50:14 | 82.4906 | 0.02304 | 13.7066 | 61.6875 | 5.8601 | 12.91001 | – |
| 2026 Apr 06 17:57 | 2026 Apr 02 00:50:14 | 82.4906 | 0.02304 | 13.7066 | 61.6875 | 5.8601 | 12.91001 | – |